PST,Max TemperatureF,Mean TemperatureF,Min TemperatureF,Max Dew PointF,MeanDew PointF,Min DewpointF,Max Humidity, Mean Humidity, Min Humidity, Max Sea Level PressureIn, Mean Sea Level PressureIn, Min Sea Level PressureIn, Max VisibilityMiles, Mean VisibilityMiles, Min VisibilityMiles, Max Wind SpeedMPH, Mean Wind SpeedMPH, Max Gust SpeedMPH,PrecipitationIn, CloudCover, Events, WindDirDegrees
2012-2-1,65,54,43,46,44,41,92,70,48,30.25,30.20,30.17,10,7,4,17,7,22,0.00,2,,314
2012-2-2,57,51,44,46,44,41,100,86,72,30.20,30.12,30.00,9,3,0,14,6,17,0.00,5,Fog,126
2012-2-3,65,51,37,43,36,30,96,62,28,30.08,30.04,30.00,10,8,3,10,3,,0.00,2,,335
2012-2-4,68,53,38,36,31,27,79,51,22,30.13,30.09,30.06,10,10,9,8,1,,0.00,2,,320
2012-2-5,69,54,38,35,31,26,76,49,22,30.14,30.08,30.02,10,10,9,8,2,12,0.00,2,,9
2012-2-6,65,53,41,36,32,28,67,47,26,30.04,29.93,29.81,10,10,10,7,2,12,0.00,6,,85
2012-2-7,66,60,53,41,36,30,55,41,26,30.09,29.92,29.83,10,10,10,22,5,31,T,8,Rain,99
2012-2-8,67,56,45,45,42,40,89,63,37,30.28,30.19,30.10,10,10,9,10,3,,0.00,1,,306
2012-2-9,71,57,43,46,43,40,89,63,37,30.32,30.25,30.16,10,8,5,9,3,,0.00,1,,96
2012-2-10,73,59,44,50,45,41,89,62,35,30.21,30.13,30.04,10,8,6,16,3,,0.00,1,,329
2012-2-11,61,54,47,50,45,41,89,70,51,30.07,30.03,29.98,10,10,6,16,9,22,0.06,5,Rain,305
2012-2-12,62,53,43,47,44,41,100,76,51,30.09,30.04,29.99,10,5,0,9,3,,0.00,5,Fog-Rain,321
2012-2-13,54,51,48,48,42,37,93,76,59,30.00,29.97,29.94,10,8,3,21,5,25,0.22,7,Rain,285
2012-2-14,56,48,40,41,39,36,93,72,50,30.12,30.08,30.00,10,9,6,10,2,,0.00,6,,126
2012-2-15,56,50,43,43,38,33,89,66,43,30.12,30.04,30.00,10,8,2,16,6,21,0.16,5,Rain,309
2012-2-16,60,48,36,39,36,32,92,64,36,30.28,30.22,30.12,10,10,8,9,3,20,0.00,1,,70
2012-2-17,65,52,39,41,38,35,92,66,39,30.30,30.23,30.17,10,9,7,7,2,13,0.00,1,,54
2012-2-18,63,52,41,46,41,37,86,65,43,30.20,30.12,30.04,10,9,7,17,4,25,0.00,5,,323
2012-2-19,59,51,42,42,35,26,86,57,28,30.14,30.09,30.06,10,10,10,15,6,20,0.00,4,,322
2012-2-20,62,52,41,41,36,31,82,57,32,30.21,30.15,30.11,10,10,9,9,2,14,0.00,4,,319
2012-2-21,63,52,41,41,39,38,89,64,39,30.32,30.27,30.22,10,9,6,13,2,15,0.00,5,,59
2012-2-22,68,55,41,44,41,38,89,65,40,30.30,30.20,30.07,10,9,7,7,2,,0.00,4,,6
2012-2-23,70,57,43,46,44,41,89,64,39,30.06,30.00,29.95,10,8,5,9,2,,0.00,2,,337
2012-2-24,77,61,45,47,42,32,86,55,24,30.12,30.07,30.03,10,7,4,12,3,,0.00,1,,55
2012-2-25,66,56,46,40,34,25,71,50,28,30.24,30.16,30.11,10,10,10,24,14,32,0.00,2,,306
2012-2-26,60,48,36,35,30,26,70,49,27,30.12,29.99,29.85,10,10,10,17,5,24,0.00,4,,101
2012-2-27,54,49,43,41,34,30,83,62,41,29.98,29.86,29.81,10,10,7,14,5,16,0.02,7,Rain,354
2012-2-28,56,48,39,42,37,31,100,71,41,30.27,30.19,30.01,10,6,0,8,2,,0.00,5,Fog,106
2012-2-29,59,52,45,48,40,33,86,66,46,30.26,30.22,30.15,10,8,2,22,10,26,0.27,7,Rain,112